KHZY

Northeast Ohio Regional Airport

Ashtabula, Ohio, USA
METAR KHZY 221732Z AUTO 24006KT 10SM SCT015 BKN024 OVC031 22/19 A2999 RMK AO2 T02220194
Observed Flight Rules
May-22 @ 17:32 UTC (14 minutes ago) Marginal Visual Flight Rules
Wind Visibility Clouds
240° at 6 knots 10 miles
  • Scattered at 1,500' AGL
  • Broken at 2,400' AGL
  • Overcast at 3,100' AGL
Temperatures Readings
Current 22°C / 72°F
Dewpoint 19°C / 66°F
Humidity 83%
Altimeter 29.99" Hg
Pressure 1016 hPa
Elevation 276
METAR KHZY 221732Z AUTO 24006KT 10SM SCT015 BKN024 OVC031 22/19 A2999 RMK AO2 T02220194
Observed Flight Rules
May-22 @ 17:32 UTC
(14 minutes ago)
MVFR
Wind Visibility
240° at 6 knots 10 miles
Clouds
  • Scattered at 1,500' AGL
  • Broken at 2,400' AGL
  • Overcast at 3,100' AGL
Temperature Dewpoint
22°C / 72°F 19°C / 66°F
Humidity Altimeter Pressure
83% 29.99" Hg 1016 hPa